createdAt,value
2018-08-31T00:01:59.394Z,99.20
2018-08-31T00:04:40.259Z,99.20
2018-08-31T00:07:25.384Z,99.30
2018-08-31T00:10:20.438Z,98.90
2018-08-31T00:12:49.026Z,98.70
2018-08-31T00:15:17.611Z,98.60
2018-08-31T00:17:46.169Z,98.80
2018-08-31T00:20:15.312Z,98.60
2018-08-31T00:22:43.900Z,98.50
2018-08-31T00:26:24.302Z,98.50
2018-08-31T00:29:41.743Z,98.60
2018-08-31T00:32:21.964Z,98.60
2018-08-31T00:35:01.761Z,98.40
2018-08-31T00:37:41.647Z,98.60
2018-08-31T00:41:23.841Z,98.30
2018-08-31T00:44:05.795Z,98.50
2018-08-31T00:46:34.403Z,98.70
2018-08-31T00:49:03.060Z,98.60
2018-08-31T00:51:31.620Z,98.40
2018-08-31T00:54:00.282Z,98.50
2018-08-31T00:56:28.833Z,98.40
2018-08-31T00:58:57.404Z,98.60
2018-08-31T01:01:26.833Z,98.20
2018-08-31T01:03:55.412Z,98.00
2018-08-31T01:06:23.956Z,98.10
2018-08-31T01:08:52.501Z,97.90
2018-08-31T01:11:21.057Z,97.90
2018-08-31T01:13:49.608Z,98.10
2018-08-31T01:16:18.208Z,98.30
2018-08-31T01:18:46.752Z,98.40
2018-08-31T01:21:15.337Z,98.10
2018-08-31T01:23:44.019Z,97.90
2018-08-31T01:26:12.556Z,97.70
2018-08-31T01:28:41.166Z,98.10
2018-08-31T01:31:09.705Z,98.20
2018-08-31T01:33:38.410Z,98.00
2018-08-31T01:36:06.995Z,98.00
2018-08-31T01:38:35.587Z,98.00
2018-08-31T01:41:04.195Z,97.90
2018-08-31T01:43:32.733Z,97.90
2018-08-31T01:46:01.280Z,98.10
2018-08-31T01:48:29.821Z,98.30
2018-08-31T01:51:03.613Z,97.90
2018-08-31T01:53:32.224Z,97.80
2018-08-31T01:56:00.846Z,97.90
2018-08-31T01:58:29.435Z,97.80
2018-08-31T02:00:58.028Z,97.30
2018-08-31T02:03:26.594Z,97.20
2018-08-31T02:05:55.204Z,97.70
2018-08-31T02:08:23.762Z,97.60
2018-08-31T02:10:52.299Z,97.90
2018-08-31T02:13:20.906Z,97.80
2018-08-31T02:15:49.454Z,98.20
2018-08-31T02:18:18.038Z,98.30
2018-08-31T02:20:46.595Z,98.40
2018-08-31T02:23:15.151Z,98.40
2018-08-31T02:25:43.688Z,98.60
2018-08-31T02:28:12.246Z,98.70
2018-08-31T02:30:40.809Z,98.60
2018-08-31T02:33:09.365Z,98.50
2018-08-31T02:35:37.908Z,98.60
2018-08-31T02:38:06.891Z,98.40
2018-08-31T02:40:35.439Z,98.10
2018-08-31T02:43:04.032Z,98.10
2018-08-31T02:45:33.207Z,98.20
2018-08-31T02:48:01.757Z,98.30
2018-08-31T02:50:30.325Z,98.40
2018-08-31T02:52:58.865Z,98.50
2018-08-31T02:55:27.446Z,98.50
2018-08-31T02:57:55.995Z,98.40
2018-08-31T03:00:24.611Z,98.20
2018-08-31T03:02:53.253Z,98.10
2018-08-31T03:05:21.824Z,98.40
2018-08-31T03:07:50.494Z,98.60
2018-08-31T03:10:19.133Z,98.30
2018-08-31T03:12:47.707Z,98.50
2018-08-31T03:15:16.260Z,98.40
2018-08-31T03:17:44.916Z,98.40
2018-08-31T03:20:13.510Z,98.30
2018-08-31T03:22:42.077Z,98.40
2018-08-31T03:25:10.782Z,98.10
2018-08-31T03:27:39.353Z,98.20
2018-08-31T03:30:08.025Z,98.10
2018-08-31T03:32:36.578Z,97.80
2018-08-31T03:35:05.324Z,97.70
2018-08-31T03:37:33.863Z,97.50
2018-08-31T03:40:02.397Z,97.60
2018-08-31T03:42:30.932Z,96.90
2018-08-31T03:44:59.478Z,97.20
2018-08-31T03:47:28.380Z,97.00
2018-08-31T03:49:56.960Z,97.10
2018-08-31T03:52:25.533Z,97.00
2018-08-31T03:54:54.133Z,96.80
2018-08-31T03:57:22.711Z,97.10
2018-08-31T03:59:51.302Z,97.20
2018-08-31T04:02:19.894Z,97.70
2018-08-31T04:04:48.498Z,97.80
2018-08-31T04:07:17.051Z,97.40
2018-08-31T04:09:45.593Z,96.80
2018-08-31T04:12:14.147Z,96.70
2018-08-31T04:14:42.700Z,96.80
2018-08-31T04:17:11.272Z,96.80
2018-08-31T04:19:39.831Z,96.80
2018-08-31T04:22:08.466Z,96.70
2018-08-31T04:24:37.005Z,96.60
2018-08-31T04:27:05.575Z,96.40
2018-08-31T04:29:34.151Z,96.30
2018-08-31T04:32:02.736Z,96.30
2018-08-31T04:34:31.324Z,96.20
2018-08-31T04:36:59.933Z,96.40
2018-08-31T04:39:28.504Z,96.30
2018-08-31T04:41:57.061Z,96.30
2018-08-31T04:44:25.623Z,96.40
2018-08-31T04:46:54.207Z,96.50
2018-08-31T04:49:22.735Z,96.70
2018-08-31T04:51:51.296Z,96.80
2018-08-31T04:54:19.993Z,96.50
2018-08-31T04:56:48.585Z,96.90
2018-08-31T04:59:17.145Z,96.60
2018-08-31T05:01:45.669Z,96.40
2018-08-31T05:04:14.358Z,96.80
2018-08-31T05:06:42.908Z,97.20
2018-08-31T05:09:12.472Z,96.90
2018-08-31T05:11:41.173Z,96.60
2018-08-31T05:14:09.798Z,96.70
2018-08-31T05:16:38.357Z,96.80
2018-08-31T05:19:06.959Z,96.80
2018-08-31T05:21:35.504Z,96.80
2018-08-31T05:24:04.116Z,97.10
2018-08-31T05:26:32.630Z,96.60
2018-08-31T05:29:01.233Z,96.60
2018-08-31T05:31:29.832Z,96.60
2018-08-31T05:33:58.440Z,96.30
2018-08-31T05:36:27.004Z,96.60
2018-08-31T05:38:55.552Z,96.60
2018-08-31T05:41:24.088Z,96.30
2018-08-31T05:43:52.639Z,96.00
2018-08-31T05:46:21.267Z,96.10
2018-08-31T05:48:49.885Z,95.80
2018-08-31T05:51:18.692Z,95.10
2018-08-31T05:53:47.220Z,95.30
2018-08-31T05:56:15.778Z,95.60
2018-08-31T05:58:44.287Z,95.30
2018-08-31T06:01:12.864Z,95.10
2018-08-31T06:03:41.405Z,94.80
2018-08-31T06:06:09.954Z,94.70
2018-08-31T06:08:38.525Z,94.30
2018-08-31T06:11:07.174Z,93.60
2018-08-31T06:13:35.753Z,93.90
2018-08-31T06:16:04.310Z,94.00
2018-08-31T06:18:32.896Z,93.20
2018-08-31T06:21:01.526Z,93.20
2018-08-31T06:23:30.125Z,91.70
2018-08-31T06:25:58.676Z,93.30
2018-08-31T06:28:27.255Z,92.50
2018-08-31T06:30:55.903Z,91.60
2018-08-31T06:33:25.263Z,91.30
2018-08-31T06:35:53.827Z,91.00
2018-08-31T06:38:22.374Z,90.10
2018-08-31T06:40:51.096Z,88.50
2018-08-31T06:43:19.589Z,89.10
2018-08-31T06:45:48.157Z,88.20
2018-08-31T06:48:16.712Z,87.40
2018-08-31T06:50:45.261Z,88.80
2018-08-31T06:53:13.858Z,88.50
2018-08-31T06:55:42.407Z,86.80
2018-08-31T06:58:10.947Z,86.60
2018-08-31T07:00:39.543Z,85.50
2018-08-31T07:03:08.082Z,86.00
2018-08-31T07:05:36.672Z,86.50
2018-08-31T07:08:05.533Z,87.60
2018-08-31T07:10:34.080Z,84.50
2018-08-31T07:13:02.638Z,83.80
2018-08-31T07:15:31.226Z,82.70
2018-08-31T07:17:59.770Z,84.80
2018-08-31T07:20:28.326Z,86.20
2018-08-31T07:22:56.892Z,85.20
2018-08-31T07:25:25.500Z,84.20
2018-08-31T07:27:54.047Z,81.50
2018-08-31T07:30:22.587Z,83.00
2018-08-31T07:32:51.121Z,85.10
2018-08-31T07:35:19.651Z,84.00
2018-08-31T07:37:48.183Z,76.20
2018-08-31T07:40:16.710Z,79.60
2018-08-31T07:42:45.359Z,80.20
2018-08-31T07:45:13.938Z,80.70
2018-08-31T07:47:42.496Z,75.30
2018-08-31T07:50:11.052Z,76.00
2018-08-31T07:52:39.659Z,74.90
2018-08-31T07:55:08.217Z,74.80
2018-08-31T07:57:36.772Z,75.90
2018-08-31T08:00:05.425Z,76.10
2018-08-31T08:02:34.005Z,77.80
2018-08-31T08:05:02.556Z,75.20
2018-08-31T08:07:31.241Z,77.00
2018-08-31T08:09:59.782Z,78.00
2018-08-31T08:12:28.344Z,76.90
2018-08-31T08:14:56.889Z,76.30
2018-08-31T08:17:25.501Z,77.80
2018-08-31T08:19:54.136Z,80.30
2018-08-31T08:22:22.689Z,78.50
2018-08-31T08:24:51.355Z,78.50
2018-08-31T08:27:19.923Z,79.10
2018-08-31T08:29:48.509Z,77.70
2018-08-31T08:32:17.079Z,76.90
2018-08-31T08:34:45.745Z,75.40
2018-08-31T08:37:14.289Z,76.70
2018-08-31T08:39:42.873Z,75.40
2018-08-31T08:42:11.613Z,76.10
2018-08-31T08:44:40.174Z,77.50
2018-08-31T08:47:08.843Z,78.20
2018-08-31T08:49:37.395Z,76.60
2018-08-31T08:52:06.101Z,73.70
2018-08-31T08:54:34.687Z,74.50
2018-08-31T08:57:03.236Z,75.90
2018-08-31T08:59:31.834Z,71.80
2018-08-31T09:02:00.430Z,73.90
2018-08-31T09:04:29.035Z,72.10
2018-08-31T09:06:57.634Z,69.20
2018-08-31T09:09:26.156Z,70.70
2018-08-31T09:11:54.751Z,72.00
2018-08-31T09:14:23.286Z,71.40
2018-08-31T09:16:51.848Z,71.30
2018-08-31T09:19:20.383Z,72.00
2018-08-31T09:21:48.907Z,74.30
2018-08-31T09:24:17.457Z,73.70
2018-08-31T09:26:46.001Z,73.50
2018-08-31T09:29:14.577Z,71.80
2018-08-31T09:31:43.243Z,72.00
2018-08-31T09:34:11.830Z,77.50
2018-08-31T09:36:40.407Z,72.10
2018-08-31T09:39:09.353Z,66.90
2018-08-31T09:41:37.957Z,66.40
2018-08-31T09:44:06.491Z,62.10
2018-08-31T09:46:35.059Z,62.60
2018-08-31T09:49:03.608Z,63.80
2018-08-31T09:51:32.196Z,64.70
2018-08-31T09:54:00.789Z,65.60
2018-08-31T09:56:29.431Z,63.70
2018-08-31T09:58:58.082Z,61.00
2018-08-31T10:01:31.932Z,60.80
2018-08-31T10:04:02.173Z,56.40
2018-08-31T10:06:35.362Z,61.20
2018-08-31T10:09:06.444Z,59.90
2018-08-31T10:14:21.990Z,59.30
2018-08-31T10:16:56.312Z,57.40
2018-08-31T10:19:27.817Z,56.50
2018-08-31T10:21:57.394Z,55.30
2018-08-31T10:24:26.404Z,54.10
2018-08-31T10:27:01.617Z,56.70
2018-08-31T10:29:30.838Z,54.20
2018-08-31T10:31:59.873Z,55.40
2018-08-31T10:34:28.987Z,52.80
2018-08-31T10:36:58.097Z,54.50
2018-08-31T10:39:27.688Z,56.90
2018-08-31T10:41:58.374Z,58.00
2018-08-31T10:44:27.360Z,53.60
2018-08-31T10:46:56.116Z,56.50
2018-08-31T10:49:24.837Z,50.20
2018-08-31T10:51:53.671Z,53.40
2018-08-31T10:54:22.465Z,56.10
2018-08-31T10:56:51.125Z,57.10
2018-08-31T10:59:19.869Z,52.20
2018-08-31T11:01:48.581Z,54.40
2018-08-31T11:04:17.279Z,56.50
2018-08-31T11:06:45.889Z,55.70
2018-08-31T11:09:14.641Z,56.40
2018-08-31T11:11:43.949Z,56.20
2018-08-31T11:14:12.667Z,53.40
2018-08-31T11:16:41.370Z,54.40
2018-08-31T11:19:10.332Z,53.40
2018-08-31T11:21:41.412Z,50.10
2018-08-31T11:24:10.276Z,49.30
2018-08-31T11:26:38.940Z,53.70
2018-08-31T11:29:07.719Z,53.20
2018-08-31T11:31:36.327Z,50.20
2018-08-31T11:34:04.954Z,52.40
2018-08-31T11:36:33.521Z,52.80
2018-08-31T11:39:02.186Z,56.80
2018-08-31T11:41:30.735Z,53.00
2018-08-31T11:43:59.287Z,52.00
2018-08-31T11:46:27.867Z,52.70
2018-08-31T11:48:56.443Z,52.30
2018-08-31T11:51:24.999Z,54.00
2018-08-31T11:53:53.656Z,50.10
2018-08-31T11:56:22.188Z,52.30
2018-08-31T11:58:50.764Z,49.30
2018-08-31T12:01:19.871Z,49.60
2018-08-31T12:03:48.655Z,54.00
2018-08-31T12:06:17.934Z,52.00
2018-08-31T12:08:48.626Z,48.80
2018-08-31T12:11:23.041Z,49.70
2018-08-31T12:14:11.149Z,48.30
2018-08-31T12:16:39.990Z,48.90
2018-08-31T12:19:08.633Z,49.30
2018-08-31T12:21:37.177Z,49.90
2018-08-31T12:24:05.875Z,50.30
2018-08-31T12:26:34.467Z,52.00
2018-08-31T12:29:03.100Z,49.00
2018-08-31T12:31:31.655Z,50.30
2018-08-31T12:34:00.224Z,47.60
2018-08-31T12:36:28.790Z,48.00
2018-08-31T12:38:57.371Z,47.50
2018-08-31T12:41:25.903Z,52.30
2018-08-31T12:43:54.594Z,48.50
2018-08-31T12:46:23.125Z,48.00
2018-08-31T12:48:51.653Z,47.70
2018-08-31T12:51:20.197Z,49.10
2018-08-31T12:53:48.744Z,49.70
2018-08-31T12:56:17.331Z,50.80
2018-08-31T12:58:45.935Z,51.00
2018-08-31T13:01:14.508Z,48.90
2018-08-31T13:03:43.050Z,48.50
2018-08-31T13:06:11.659Z,51.30
2018-08-31T13:08:40.260Z,50.90
2018-08-31T13:11:08.856Z,47.40
2018-08-31T13:13:37.379Z,52.60
2018-08-31T13:16:06.132Z,49.20
2018-08-31T13:18:34.664Z,51.30
2018-08-31T13:21:03.219Z,51.60
2018-08-31T13:23:31.833Z,50.90
2018-08-31T13:26:00.428Z,50.80
2018-08-31T13:28:29.047Z,52.40
2018-08-31T13:30:57.644Z,50.70
2018-08-31T13:33:26.164Z,49.40
2018-08-31T13:35:54.726Z,49.50
2018-08-31T13:38:23.349Z,52.00
2018-08-31T13:40:51.917Z,51.90
2018-08-31T13:43:20.493Z,51.40
2018-08-31T13:45:49.043Z,53.40
2018-08-31T13:48:17.597Z,52.30
2018-08-31T13:50:46.158Z,53.40
2018-08-31T13:53:14.830Z,51.10
2018-08-31T13:55:43.470Z,51.50
2018-08-31T13:58:12.034Z,50.50
2018-08-31T14:00:40.659Z,52.40
2018-08-31T14:03:09.212Z,50.30
2018-08-31T14:05:37.770Z,51.70
2018-08-31T14:08:06.514Z,52.00
2018-08-31T14:10:35.084Z,51.50
2018-08-31T14:13:03.693Z,54.20
2018-08-31T14:15:32.260Z,54.00
2018-08-31T14:18:00.872Z,54.00
2018-08-31T14:20:29.513Z,54.00
2018-08-31T14:22:58.085Z,55.60
2018-08-31T14:25:26.700Z,55.00
2018-08-31T14:27:55.273Z,56.00
2018-08-31T14:30:23.825Z,57.50
2018-08-31T14:32:52.368Z,56.60
2018-08-31T14:35:20.923Z,56.00
2018-08-31T14:37:49.521Z,56.60
2018-08-31T14:40:18.137Z,57.60
2018-08-31T14:42:47.708Z,56.50
2018-08-31T14:45:16.250Z,55.50
2018-08-31T14:47:44.801Z,56.70
2018-08-31T14:50:13.363Z,55.80
2018-08-31T14:52:41.921Z,56.50
2018-08-31T14:55:10.477Z,59.20
2018-08-31T14:57:39.077Z,57.50
2018-08-31T15:00:07.781Z,57.10
2018-08-31T15:02:36.428Z,56.40
2018-08-31T15:05:05.113Z,57.80
2018-08-31T15:07:33.640Z,59.10
2018-08-31T15:10:02.174Z,58.30
2018-08-31T15:12:30.737Z,59.20
2018-08-31T15:14:59.286Z,59.00
2018-08-31T15:17:27.848Z,59.80
2018-08-31T15:19:56.440Z,60.30
2018-08-31T15:22:25.164Z,58.60
2018-08-31T15:24:53.697Z,59.50
2018-08-31T15:27:22.501Z,57.80
2018-08-31T15:29:51.016Z,57.30
2018-08-31T15:32:19.701Z,56.50
2018-08-31T15:34:48.252Z,57.40
2018-08-31T15:37:16.791Z,58.80
2018-08-31T15:39:45.423Z,59.10
2018-08-31T15:42:14.072Z,58.80
2018-08-31T15:44:42.680Z,58.10
2018-08-31T15:47:11.256Z,56.80
2018-08-31T15:49:39.829Z,60.20
2018-08-31T15:52:08.469Z,59.70
2018-08-31T15:54:37.061Z,60.40
2018-08-31T15:57:05.709Z,59.20
2018-08-31T15:59:34.300Z,57.80
2018-08-31T16:02:02.892Z,58.60
2018-08-31T16:04:31.788Z,57.50
2018-08-31T16:07:00.408Z,59.40
2018-08-31T16:09:28.905Z,61.50
2018-08-31T16:11:57.521Z,60.40
2018-08-31T16:14:26.136Z,60.90
2018-08-31T16:16:54.718Z,59.50
2018-08-31T16:19:23.364Z,60.10
2018-08-31T16:21:52.017Z,60.40
2018-08-31T16:24:20.609Z,61.20
2018-08-31T16:26:49.137Z,60.70
2018-08-31T16:29:17.681Z,60.00
2018-08-31T16:31:46.260Z,61.60
2018-08-31T16:34:14.814Z,61.60
2018-08-31T16:36:43.393Z,62.50
2018-08-31T16:39:11.962Z,62.20
2018-08-31T16:41:40.484Z,62.40
2018-08-31T16:44:09.045Z,60.80
2018-08-31T16:46:37.582Z,61.70
2018-08-31T16:49:06.160Z,60.40
2018-08-31T16:51:34.724Z,60.70
2018-08-31T16:54:03.286Z,61.40
2018-08-31T16:56:31.866Z,61.40
2018-08-31T16:59:00.393Z,61.00
2018-08-31T17:01:29.846Z,62.20
2018-08-31T17:03:58.393Z,62.20
2018-08-31T17:06:27.794Z,62.60
2018-08-31T17:08:56.397Z,62.70
2018-08-31T17:11:24.988Z,62.70
2018-08-31T17:13:53.557Z,63.00
2018-08-31T17:16:22.073Z,64.00
2018-08-31T17:18:50.649Z,63.60
2018-08-31T17:21:19.356Z,63.50
2018-08-31T17:23:47.896Z,63.90
2018-08-31T17:26:21.948Z,64.00
2018-08-31T17:28:55.787Z,63.40
2018-08-31T17:31:29.738Z,63.10
2018-08-31T17:34:04.670Z,63.40
2018-08-31T17:36:38.469Z,63.60
2018-08-31T17:39:08.377Z,64.90
2018-08-31T17:41:36.962Z,66.00
2018-08-31T17:44:05.751Z,66.10
2018-08-31T17:46:34.290Z,66.40
2018-08-31T17:49:03.087Z,67.20
2018-08-31T17:51:31.644Z,68.10
2018-08-31T17:55:02.959Z,69.20
2018-08-31T17:57:31.587Z,69.50
2018-08-31T18:00:00.146Z,69.70
2018-08-31T18:02:28.756Z,70.20
2018-08-31T18:04:57.372Z,70.80
2018-08-31T18:07:25.951Z,71.00
2018-08-31T18:09:54.607Z,71.70
2018-08-31T18:12:23.151Z,70.80
2018-08-31T18:14:51.752Z,70.40
2018-08-31T18:17:20.343Z,70.30
2018-08-31T18:19:48.897Z,71.00
2018-08-31T18:22:17.496Z,71.90
2018-08-31T18:24:46.042Z,71.00
2018-08-31T18:27:14.645Z,71.20
2018-08-31T18:29:43.199Z,71.80
2018-08-31T18:32:12.551Z,72.10
2018-08-31T18:34:41.109Z,71.80
2018-08-31T18:37:09.803Z,72.30
2018-08-31T18:39:38.370Z,72.20
2018-08-31T18:42:06.940Z,72.60
2018-08-31T18:44:35.479Z,74.00
2018-08-31T18:47:04.097Z,73.50
2018-08-31T18:49:32.632Z,73.70
2018-08-31T18:52:01.216Z,74.20
2018-08-31T18:54:29.782Z,74.80
2018-08-31T18:56:58.393Z,74.70
2018-08-31T18:59:26.996Z,75.30
2018-08-31T19:01:55.573Z,76.00
2018-08-31T19:04:24.145Z,75.90
2018-08-31T19:06:52.724Z,76.20
2018-08-31T19:09:21.315Z,76.30
2018-08-31T19:11:50.085Z,76.90
2018-08-31T19:14:18.795Z,76.80
2018-08-31T19:16:47.423Z,76.10
2018-08-31T19:19:16.005Z,75.90
2018-08-31T19:21:44.555Z,76.70
2018-08-31T19:24:13.126Z,76.50
2018-08-31T19:26:41.748Z,76.60
2018-08-31T19:29:10.293Z,76.80
2018-08-31T19:31:38.943Z,75.70
2018-08-31T19:34:07.559Z,75.50
2018-08-31T19:36:36.127Z,75.50
2018-08-31T19:39:06.222Z,75.20
2018-08-31T19:41:34.780Z,75.00
2018-08-31T19:44:03.412Z,74.70
2018-08-31T19:46:32.003Z,74.60
2018-08-31T19:49:00.557Z,74.50
2018-08-31T19:51:29.227Z,74.70
2018-08-31T19:53:57.774Z,75.40
2018-08-31T19:56:26.445Z,74.10
2018-08-31T19:58:55.023Z,74.10
2018-08-31T20:01:23.909Z,73.70
2018-08-31T20:03:52.489Z,73.80
2018-08-31T20:06:21.099Z,73.60
2018-08-31T20:08:50.278Z,74.30
2018-08-31T20:11:18.934Z,74.20
2018-08-31T20:13:47.529Z,74.50
2018-08-31T20:16:16.199Z,74.30
2018-08-31T20:18:44.769Z,74.60
2018-08-31T20:21:13.305Z,73.90
2018-08-31T20:23:41.955Z,73.80
2018-08-31T20:26:10.514Z,73.20
2018-08-31T20:28:39.284Z,73.00
2018-08-31T20:31:07.892Z,73.00
2018-08-31T20:33:36.478Z,73.80
2018-08-31T20:36:05.090Z,73.80
2018-08-31T20:38:33.753Z,73.60
2018-08-31T20:41:02.303Z,73.60
2018-08-31T20:43:31.072Z,74.20
2018-08-31T20:46:01.285Z,74.90
2018-08-31T20:48:29.911Z,75.10
2018-08-31T20:50:58.549Z,73.60
2018-08-31T20:53:27.274Z,73.90
2018-08-31T20:55:56.872Z,74.60
2018-08-31T20:58:25.483Z,74.40
2018-08-31T21:00:54.061Z,73.90
2018-08-31T21:03:22.676Z,73.30
2018-08-31T21:05:51.473Z,73.10
2018-08-31T21:08:20.095Z,73.20
2018-08-31T21:10:48.746Z,73.00
2018-08-31T21:13:17.343Z,72.90
2018-08-31T21:15:45.951Z,73.20
2018-08-31T21:18:14.549Z,72.30
2018-08-31T21:20:43.155Z,71.60
2018-08-31T21:23:11.747Z,72.00
2018-08-31T21:25:41.013Z,72.00
2018-08-31T21:28:09.558Z,72.30
2018-08-31T21:30:38.251Z,71.70
2018-08-31T21:33:07.336Z,71.50
2018-08-31T21:35:36.119Z,70.20
2018-08-31T21:38:04.703Z,72.00
2018-08-31T21:40:33.249Z,71.30
2018-08-31T21:43:02.224Z,71.20
2018-08-31T21:45:30.743Z,71.20
2018-08-31T21:47:59.312Z,71.50
2018-08-31T21:50:27.866Z,72.80
2018-08-31T21:52:56.382Z,72.70
2018-08-31T21:55:25.093Z,73.90
2018-08-31T21:57:53.598Z,74.50
2018-08-31T22:00:22.696Z,74.40
2018-08-31T22:02:51.640Z,76.90
2018-08-31T22:05:20.211Z,75.90
2018-08-31T22:07:48.779Z,75.50
2018-08-31T22:10:17.388Z,75.10
2018-08-31T22:12:45.978Z,76.90
2018-08-31T22:15:21.566Z,77.40
2018-08-31T22:17:50.283Z,76.00
2018-08-31T22:20:18.804Z,79.30
2018-08-31T22:22:47.375Z,78.60
2018-08-31T22:25:16.092Z,79.40
2018-08-31T22:27:44.701Z,79.20
2018-08-31T22:30:13.260Z,80.60
2018-08-31T22:32:41.777Z,80.80
2018-08-31T22:35:10.420Z,81.80
2018-08-31T22:37:38.928Z,82.70
2018-08-31T22:40:08.289Z,82.50
2018-08-31T22:42:36.919Z,82.10
2018-08-31T22:45:09.694Z,82.80
2018-08-31T22:47:38.333Z,82.50
2018-08-31T22:50:06.988Z,83.00
2018-08-31T22:52:35.532Z,83.50
2018-08-31T22:55:04.068Z,83.10
2018-08-31T22:57:32.599Z,82.60
2018-08-31T23:00:01.129Z,82.80
2018-08-31T23:02:29.684Z,81.50
2018-08-31T23:04:58.207Z,81.00
2018-08-31T23:07:31.997Z,82.30
2018-08-31T23:10:00.572Z,83.30
2018-08-31T23:12:29.140Z,81.60
2018-08-31T23:14:57.691Z,82.10
2018-08-31T23:17:28.687Z,82.10
2018-08-31T23:19:58.190Z,81.60
2018-08-31T23:22:27.844Z,79.80
2018-08-31T23:25:01.020Z,80.30
2018-08-31T23:27:30.359Z,79.30
2018-08-31T23:29:59.700Z,80.10
2018-08-31T23:32:28.294Z,80.10
2018-08-31T23:34:56.849Z,80.60
2018-08-31T23:37:25.386Z,81.30
2018-08-31T23:39:53.907Z,81.20
2018-08-31T23:42:22.436Z,79.60
2018-08-31T23:44:51.000Z,80.00
2018-08-31T23:47:19.536Z,78.70
2018-08-31T23:49:48.077Z,79.50
2018-08-31T23:52:16.597Z,80.00
2018-08-31T23:54:45.112Z,80.10
2018-08-31T23:57:13.642Z,78.90
2018-08-31T23:59:42.174Z,77.90
